sensor_id;sensor_type;location;lat;lon;timestamp;pressure;altitude;pressure_sealevel;temperature;humidity
10261;BME280;5175;42.606;23.388;2023-04-01T00:00:24;92912.16;;;13.17;57.52
10261;BME280;5175;42.606;23.388;2023-04-01T00:02:51;92915.59;;;12.92;58.36
10261;BME280;5175;42.606;23.388;2023-04-01T00:05:18;92926.22;;;12.49;61.13
10261;BME280;5175;42.606;23.388;2023-04-01T00:07:45;92921.31;;;12.34;61.75
10261;BME280;5175;42.606;23.388;2023-04-01T00:10:13;92927.41;;;12.26;62.49
10261;BME280;5175;42.606;23.388;2023-04-01T00:12:40;92904.31;;;12.00;63.74
10261;BME280;5175;42.606;23.388;2023-04-01T00:15:08;92921.09;;;11.91;65.40
10261;BME280;5175;42.606;23.388;2023-04-01T00:17:37;92923.56;;;11.57;67.19
10261;BME280;5175;42.606;23.388;2023-04-01T00:20:05;92932.00;;;11.51;67.65
10261;BME280;5175;42.606;23.388;2023-04-01T00:22:33;92917.47;;;11.35;68.48
10261;BME280;5175;42.606;23.388;2023-04-01T00:25:00;92923.41;;;11.31;69.08
10261;BME280;5175;42.606;23.388;2023-04-01T00:27:27;92918.78;;;11.23;69.47
10261;BME280;5175;42.606;23.388;2023-04-01T00:29:54;92918.28;;;11.21;70.21
10261;BME280;5175;42.606;23.388;2023-04-01T00:32:21;92922.28;;;11.10;70.86
10261;BME280;5175;42.606;23.388;2023-04-01T00:34:51;92923.00;;;11.02;71.88
10261;BME280;5175;42.606;23.388;2023-04-01T00:37:18;92928.94;;;10.99;73.31
10261;BME280;5175;42.606;23.388;2023-04-01T00:39:46;92921.81;;;11.08;70.94
10261;BME280;5175;42.606;23.388;2023-04-01T00:42:13;92902.00;;;11.09;70.24
10261;BME280;5175;42.606;23.388;2023-04-01T00:44:40;92889.28;;;11.06;71.71
10261;BME280;5175;42.606;23.388;2023-04-01T00:47:07;92888.25;;;11.16;71.13
10261;BME280;5175;42.606;23.388;2023-04-01T00:49:37;92895.69;;;11.27;71.37
10261;BME280;5175;42.606;23.388;2023-04-01T00:52:08;92889.34;;;11.15;70.92
10261;BME280;5175;42.606;23.388;2023-04-01T00:54:38;92887.06;;;11.22;70.78
10261;BME280;5175;42.606;23.388;2023-04-01T00:57:10;92886.88;;;11.18;71.87
10261;BME280;5175;42.606;23.388;2023-04-01T00:59:40;92898.75;;;11.35;71.32
10261;BME280;5175;42.606;23.388;2023-04-01T01:02:11;92881.03;;;11.16;70.65
10261;BME280;5175;42.606;23.388;2023-04-01T01:04:38;92886.38;;;11.16;70.59
10261;BME280;5175;42.606;23.388;2023-04-01T01:07:16;92878.25;;;11.21;70.06
10261;BME280;5175;42.606;23.388;2023-04-01T01:09:52;92879.41;;;11.29;69.76
10261;BME280;5175;42.606;23.388;2023-04-01T01:12:26;92857.97;;;11.20;70.01
10261;BME280;5175;42.606;23.388;2023-04-01T01:15:03;92853.44;;;11.21;69.99
10261;BME280;5175;42.606;23.388;2023-04-01T01:17:41;92851.59;;;11.30;70.28
10261;BME280;5175;42.606;23.388;2023-04-01T01:20:39;92850.16;;;11.24;70.40
10261;BME280;5175;42.606;23.388;2023-04-01T01:23:36;92846.28;;;11.08;70.62
10261;BME280;5175;42.606;23.388;2023-04-01T01:26:33;92845.28;;;11.26;68.53
10261;BME280;5175;42.606;23.388;2023-04-01T01:29:10;92838.25;;;11.08;68.99
10261;BME280;5175;42.606;23.388;2023-04-01T01:31:44;92849.31;;;10.93;71.23
10261;BME280;5175;42.606;23.388;2023-04-01T01:34:19;92849.97;;;10.98;70.29
10261;BME280;5175;42.606;23.388;2023-04-01T01:36:53;92841.22;;;10.84;70.46
10261;BME280;5175;42.606;23.388;2023-04-01T01:39:24;92825.47;;;10.96;69.68
10261;BME280;5175;42.606;23.388;2023-04-01T01:41:53;92832.50;;;10.92;71.41
10261;BME280;5175;42.606;23.388;2023-04-01T01:44:23;92830.06;;;10.82;71.18
10261;BME280;5175;42.606;23.388;2023-04-01T01:46:50;92819.53;;;10.77;71.11
10261;BME280;5175;42.606;23.388;2023-04-01T01:49:18;92824.81;;;10.91;68.72
10261;BME280;5175;42.606;23.388;2023-04-01T01:51:45;92825.66;;;11.00;68.46
10261;BME280;5175;42.606;23.388;2023-04-01T01:54:15;92820.72;;;11.15;66.60
10261;BME280;5175;42.606;23.388;2023-04-01T01:56:45;92813.94;;;11.09;66.25
10261;BME280;5175;42.606;23.388;2023-04-01T01:59:14;92798.34;;;11.03;67.20
10261;BME280;5175;42.606;23.388;2023-04-01T02:01:44;92766.81;;;11.05;66.58
10261;BME280;5175;42.606;23.388;2023-04-01T02:04:13;92794.25;;;11.27;66.18
10261;BME280;5175;42.606;23.388;2023-04-01T02:06:44;92796.59;;;10.98;69.55
10261;BME280;5175;42.606;23.388;2023-04-01T02:09:15;92794.59;;;10.82;70.78
10261;BME280;5175;42.606;23.388;2023-04-01T02:11:46;92785.44;;;10.52;73.69
10261;BME280;5175;42.606;23.388;2023-04-01T02:14:16;92777.91;;;10.32;75.17
10261;BME280;5175;42.606;23.388;2023-04-01T02:16:49;92781.91;;;10.43;75.30
10261;BME280;5175;42.606;23.388;2023-04-01T02:19:18;92784.78;;;10.68;72.29
10261;BME280;5175;42.606;23.388;2023-04-01T02:21:49;92775.44;;;10.57;73.85
10261;BME280;5175;42.606;23.388;2023-04-01T02:24:20;92773.31;;;10.90;71.72
10261;BME280;5175;42.606;23.388;2023-04-01T02:26:50;92766.97;;;10.78;72.00
10261;BME280;5175;42.606;23.388;2023-04-01T02:29:20;92768.13;;;10.63;72.70
10261;BME280;5175;42.606;23.388;2023-04-01T02:31:48;92762.53;;;10.73;70.22
10261;BME280;5175;42.606;23.388;2023-04-01T02:34:16;92764.16;;;10.83;71.99
10261;BME280;5175;42.606;23.388;2023-04-01T02:36:43;92763.84;;;10.84;69.87
10261;BME280;5175;42.606;23.388;2023-04-01T02:39:10;92756.44;;;11.03;69.34
10261;BME280;5175;42.606;23.388;2023-04-01T02:41:42;92762.84;;;10.94;69.17
10261;BME280;5175;42.606;23.388;2023-04-01T02:44:10;92765.31;;;10.90;69.02
10261;BME280;5175;42.606;23.388;2023-04-01T02:46:37;92775.66;;;10.92;69.03
10261;BME280;5175;42.606;23.388;2023-04-01T02:49:04;92762.59;;;11.12;66.28
10261;BME280;5175;42.606;23.388;2023-04-01T02:51:31;92781.41;;;11.07;67.38
10261;BME280;5175;42.606;23.388;2023-04-01T02:53:58;92796.81;;;11.10;66.48
10261;BME280;5175;42.606;23.388;2023-04-01T02:56:25;92781.13;;;11.09;65.60
10261;BME280;5175;42.606;23.388;2023-04-01T02:58:54;92793.56;;;11.13;64.88
10261;BME280;5175;42.606;23.388;2023-04-01T03:01:21;92809.19;;;11.28;61.92
10261;BME280;5175;42.606;23.388;2023-04-01T03:03:48;92791.56;;;11.98;50.06
10261;BME280;5175;42.606;23.388;2023-04-01T03:06:15;92795.91;;;12.24;48.24
10261;BME280;5175;42.606;23.388;2023-04-01T03:08:42;92795.75;;;12.64;47.07
10261;BME280;5175;42.606;23.388;2023-04-01T03:11:10;92815.31;;;12.81;50.44
10261;BME280;5175;42.606;23.388;2023-04-01T03:13:37;92814.03;;;13.13;44.09
10261;BME280;5175;42.606;23.388;2023-04-01T03:16:05;92817.50;;;13.77;41.37
10261;BME280;5175;42.606;23.388;2023-04-01T03:18:33;92835.88;;;13.96;41.18
10261;BME280;5175;42.606;23.388;2023-04-01T03:21:12;92819.09;;;14.07;41.10
10261;BME280;5175;42.606;23.388;2023-04-01T03:23:39;92822.56;;;14.08;41.79
10261;BME280;5175;42.606;23.388;2023-04-01T03:26:06;92813.28;;;14.05;42.64
10261;BME280;5175;42.606;23.388;2023-04-01T03:28:33;92794.38;;;14.02;43.77
10261;BME280;5175;42.606;23.388;2023-04-01T03:30:59;92796.19;;;13.89;44.78
10261;BME280;5175;42.606;23.388;2023-04-01T03:33:27;92796.75;;;13.65;51.92
10261;BME280;5175;42.606;23.388;2023-04-01T03:35:54;92789.59;;;13.23;55.13
10261;BME280;5175;42.606;23.388;2023-04-01T03:38:21;92808.34;;;12.97;59.06
10261;BME280;5175;42.606;23.388;2023-04-01T03:40:47;92801.53;;;12.14;62.97
10261;BME280;5175;42.606;23.388;2023-04-01T03:43:14;92799.00;;;12.18;61.48
10261;BME280;5175;42.606;23.388;2023-04-01T03:45:44;92800.72;;;12.05;62.22
10261;BME280;5175;42.606;23.388;2023-04-01T03:48:11;92808.25;;;12.03;62.13
10261;BME280;5175;42.606;23.388;2023-04-01T03:50:39;92806.53;;;11.99;62.95
10261;BME280;5175;42.606;23.388;2023-04-01T03:53:06;92804.84;;;11.41;64.60
10261;BME280;5175;42.606;23.388;2023-04-01T03:55:32;92795.25;;;11.40;64.86
10261;BME280;5175;42.606;23.388;2023-04-01T03:57:59;92780.13;;;11.58;63.61
10261;BME280;5175;42.606;23.388;2023-04-01T04:00:27;92775.66;;;11.53;64.61
10261;BME280;5175;42.606;23.388;2023-04-01T04:02:54;92762.97;;;11.50;64.32
10261;BME280;5175;42.606;23.388;2023-04-01T04:05:21;92735.47;;;11.50;63.88
10261;BME280;5175;42.606;23.388;2023-04-01T04:07:50;92719.72;;;11.48;64.91
10261;BME280;5175;42.606;23.388;2023-04-01T04:10:17;92729.41;;;11.36;65.58
10261;BME280;5175;42.606;23.388;2023-04-01T04:12:44;92727.09;;;11.03;68.08
10261;BME280;5175;42.606;23.388;2023-04-01T04:15:10;92707.06;;;11.23;66.37
10261;BME280;5175;42.606;23.388;2023-04-01T04:17:37;92712.81;;;11.08;67.11
10261;BME280;5175;42.606;23.388;2023-04-01T04:20:05;92713.84;;;11.29;65.57
10261;BME280;5175;42.606;23.388;2023-04-01T04:22:33;92700.31;;;11.25;64.80
10261;BME280;5175;42.606;23.388;2023-04-01T04:25:01;92690.13;;;11.27;65.08
10261;BME280;5175;42.606;23.388;2023-04-01T04:27:28;92696.59;;;11.35;64.57
10261;BME280;5175;42.606;23.388;2023-04-01T04:29:55;92681.34;;;11.36;64.85
10261;BME280;5175;42.606;23.388;2023-04-01T04:32:22;92674.78;;;11.42;65.39
10261;BME280;5175;42.606;23.388;2023-04-01T04:34:48;92677.88;;;11.26;65.98
10261;BME280;5175;42.606;23.388;2023-04-01T04:37:15;92671.03;;;11.43;63.14
10261;BME280;5175;42.606;23.388;2023-04-01T04:39:42;92662.06;;;11.47;64.27
10261;BME280;5175;42.606;23.388;2023-04-01T04:42:10;92652.66;;;11.50;63.15
10261;BME280;5175;42.606;23.388;2023-04-01T04:44:37;92644.94;;;11.48;63.21
10261;BME280;5175;42.606;23.388;2023-04-01T04:47:03;92637.25;;;11.47;57.81
10261;BME280;5175;42.606;23.388;2023-04-01T04:49:30;92659.03;;;11.71;55.57
10261;BME280;5175;42.606;23.388;2023-04-01T04:51:57;92648.00;;;11.89;54.08
10261;BME280;5175;42.606;23.388;2023-04-01T04:54:24;92638.75;;;12.04;53.02
10261;BME280;5175;42.606;23.388;2023-04-01T04:56:51;92630.56;;;12.35;49.61
10261;BME280;5175;42.606;23.388;2023-04-01T04:59:19;92612.75;;;12.39;49.67
10261;BME280;5175;42.606;23.388;2023-04-01T05:01:46;92618.22;;;12.60;48.46
10261;BME280;5175;42.606;23.388;2023-04-01T05:04:12;92619.16;;;12.64;46.62
10261;BME280;5175;42.606;23.388;2023-04-01T05:06:39;92629.47;;;12.91;46.24
10261;BME280;5175;42.606;23.388;2023-04-01T05:09:06;92625.03;;;12.95;45.60
10261;BME280;5175;42.606;23.388;2023-04-01T05:11:32;92598.25;;;13.03;45.23
10261;BME280;5175;42.606;23.388;2023-04-01T05:13:59;92626.72;;;13.16;45.21
10261;BME280;5175;42.606;23.388;2023-04-01T05:16:27;92616.13;;;13.20;45.03
10261;BME280;5175;42.606;23.388;2023-04-01T05:18:55;92615.84;;;13.22;44.31
10261;BME280;5175;42.606;23.388;2023-04-01T05:21:21;92624.59;;;13.31;44.71
10261;BME280;5175;42.606;23.388;2023-04-01T05:23:48;92617.44;;;13.43;44.03
10261;BME280;5175;42.606;23.388;2023-04-01T05:26:15;92616.50;;;13.48;44.45
10261;BME280;5175;42.606;23.388;2023-04-01T05:28:42;92598.41;;;13.65;43.95
10261;BME280;5175;42.606;23.388;2023-04-01T05:31:08;92598.53;;;13.69;43.86
10261;BME280;5175;42.606;23.388;2023-04-01T05:33:37;92587.69;;;13.36;52.24
10261;BME280;5175;42.606;23.388;2023-04-01T05:36:07;92595.56;;;13.03;55.25
10261;BME280;5175;42.606;23.388;2023-04-01T05:38:34;92609.75;;;13.04;57.08
10261;BME280;5175;42.606;23.388;2023-04-01T05:41:02;92591.03;;;12.95;58.75
10261;BME280;5175;42.606;23.388;2023-04-01T05:43:29;92583.50;;;12.42;61.83
10261;BME280;5175;42.606;23.388;2023-04-01T05:45:56;92579.72;;;12.43;65.92
10261;BME280;5175;42.606;23.388;2023-04-01T05:48:23;92589.94;;;12.50;62.41
10261;BME280;5175;42.606;23.388;2023-04-01T05:50:51;92578.50;;;12.32;63.00
10261;BME280;5175;42.606;23.388;2023-04-01T05:53:18;92581.88;;;12.58;62.96
10261;BME280;5175;42.606;23.388;2023-04-01T05:55:44;92579.81;;;12.64;63.16
10261;BME280;5175;42.606;23.388;2023-04-01T05:58:11;92576.44;;;12.84;62.70
10261;BME280;5175;42.606;23.388;2023-04-01T06:00:38;92555.44;;;12.95;60.27
10261;BME280;5175;42.606;23.388;2023-04-01T06:03:05;92567.22;;;13.02;60.67
10261;BME280;5175;42.606;23.388;2023-04-01T06:05:39;92564.25;;;12.95;61.01
10261;BME280;5175;42.606;23.388;2023-04-01T06:08:11;92561.78;;;12.82;62.19
10261;BME280;5175;42.606;23.388;2023-04-01T06:10:48;92567.03;;;12.70;62.86
10261;BME280;5175;42.606;23.388;2023-04-01T06:13:26;92567.84;;;12.70;63.20
10261;BME280;5175;42.606;23.388;2023-04-01T06:16:04;92567.19;;;12.73;64.09
10261;BME280;5175;42.606;23.388;2023-04-01T06:18:51;92564.56;;;12.56;63.71
10261;BME280;5175;42.606;23.388;2023-04-01T06:21:35;92566.50;;;12.47;65.00
10261;BME280;5175;42.606;23.388;2023-04-01T06:27:01;92571.94;;;12.59;64.46
10261;BME280;5175;42.606;23.388;2023-04-01T06:29:54;92573.66;;;12.72;63.38
10261;BME280;5175;42.606;23.388;2023-04-01T06:32:39;92574.72;;;12.80;64.93
10261;BME280;5175;42.606;23.388;2023-04-01T06:35:35;92581.59;;;12.89;64.66
10261;BME280;5175;42.606;23.388;2023-04-01T06:38:19;92572.00;;;12.88;62.81
10261;BME280;5175;42.606;23.388;2023-04-01T06:41:01;92554.19;;;12.92;62.98
10261;BME280;5175;42.606;23.388;2023-04-01T06:43:40;92550.72;;;12.92;63.02
10261;BME280;5175;42.606;23.388;2023-04-01T06:46:20;92545.34;;;13.00;61.86
10261;BME280;5175;42.606;23.388;2023-04-01T06:49:04;92537.31;;;13.00;62.64
10261;BME280;5175;42.606;23.388;2023-04-01T06:51:40;92536.13;;;13.18;61.75
10261;BME280;5175;42.606;23.388;2023-04-01T06:54:16;92532.81;;;13.22;62.87
10261;BME280;5175;42.606;23.388;2023-04-01T06:56:49;92540.00;;;13.30;62.67
10261;BME280;5175;42.606;23.388;2023-04-01T06:59:19;92536.91;;;13.19;63.12
10261;BME280;5175;42.606;23.388;2023-04-01T07:01:49;92534.72;;;13.42;62.38
10261;BME280;5175;42.606;23.388;2023-04-01T07:04:20;92511.69;;;13.20;61.33
10261;BME280;5175;42.606;23.388;2023-04-01T07:06:53;92517.81;;;13.50;60.55
10261;BME280;5175;42.606;23.388;2023-04-01T07:09:22;92533.81;;;13.38;61.42
10261;BME280;5175;42.606;23.388;2023-04-01T07:11:53;92533.31;;;13.15;61.93
10261;BME280;5175;42.606;23.388;2023-04-01T07:14:26;92519.09;;;13.23;61.69
10261;BME280;5175;42.606;23.388;2023-04-01T07:16:59;92501.06;;;13.32;62.87
10261;BME280;5175;42.606;23.388;2023-04-01T07:19:30;92517.94;;;13.33;62.57
10261;BME280;5175;42.606;23.388;2023-04-01T07:22:01;92512.38;;;13.38;62.54
10261;BME280;5175;42.606;23.388;2023-04-01T07:24:33;92503.94;;;13.27;62.46
10261;BME280;5175;42.606;23.388;2023-04-01T07:27:02;92507.34;;;13.36;63.08
10261;BME280;5175;42.606;23.388;2023-04-01T07:29:29;92496.16;;;13.34;61.60
10261;BME280;5175;42.606;23.388;2023-04-01T07:32:30;92499.44;;;13.19;61.76
10261;BME280;5175;42.606;23.388;2023-04-01T07:35:20;92514.75;;;13.10;62.85
10261;BME280;5175;42.606;23.388;2023-04-01T07:37:59;92521.44;;;12.95;63.71
10261;BME280;5175;42.606;23.388;2023-04-01T07:40:39;92516.97;;;12.79;66.55
10261;BME280;5175;42.606;23.388;2023-04-01T07:43:21;92530.28;;;12.87;67.50
10261;BME280;5175;42.606;23.388;2023-04-01T07:45:58;92514.59;;;12.77;66.99
10261;BME280;5175;42.606;23.388;2023-04-01T07:48:33;92510.94;;;12.82;67.26
10261;BME280;5175;42.606;23.388;2023-04-01T07:51:09;92502.44;;;12.50;69.16
10261;BME280;5175;42.606;23.388;2023-04-01T07:53:45;92509.88;;;12.74;70.57
10261;BME280;5175;42.606;23.388;2023-04-01T07:56:17;92498.34;;;12.82;68.70
10261;BME280;5175;42.606;23.388;2023-04-01T07:58:56;92513.72;;;12.94;67.60
10261;BME280;5175;42.606;23.388;2023-04-01T08:01:33;92506.00;;;12.92;69.76
10261;BME280;5175;42.606;23.388;2023-04-01T08:04:23;92501.84;;;13.12;68.32
10261;BME280;5175;42.606;23.388;2023-04-01T08:06:57;92507.66;;;13.05;67.89
10261;BME280;5175;42.606;23.388;2023-04-01T08:09:33;92500.47;;;12.97;69.44
10261;BME280;5175;42.606;23.388;2023-04-01T08:12:15;92501.16;;;13.15;68.72
10261;BME280;5175;42.606;23.388;2023-04-01T08:14:56;92504.16;;;13.22;67.58
10261;BME280;5175;42.606;23.388;2023-04-01T08:17:31;92485.09;;;13.15;68.77
10261;BME280;5175;42.606;23.388;2023-04-01T08:20:11;92507.28;;;13.24;67.67
10261;BME280;5175;42.606;23.388;2023-04-01T08:22:42;92484.81;;;13.16;68.26
10261;BME280;5175;42.606;23.388;2023-04-01T08:25:14;92477.22;;;13.39;67.61
10261;BME280;5175;42.606;23.388;2023-04-01T08:27:45;92467.72;;;13.62;66.71
10261;BME280;5175;42.606;23.388;2023-04-01T08:30:18;92455.59;;;13.77;67.98
10261;BME280;5175;42.606;23.388;2023-04-01T08:32:47;92460.47;;;13.96;67.54
10261;BME280;5175;42.606;23.388;2023-04-01T08:35:24;92445.28;;;14.00;65.99
10261;BME280;5175;42.606;23.388;2023-04-01T08:37:54;92437.06;;;14.17;65.38
10261;BME280;5175;42.606;23.388;2023-04-01T08:40:37;92427.53;;;14.52;63.84
10261;BME280;5175;42.606;23.388;2023-04-01T08:43:09;92426.41;;;14.65;62.78
10261;BME280;5175;42.606;23.388;2023-04-01T08:45:56;92409.44;;;15.13;60.66
10261;BME280;5175;42.606;23.388;2023-04-01T08:48:47;92401.97;;;15.46;61.00
10261;BME280;5175;42.606;23.388;2023-04-01T08:54:31;92421.69;;;16.21;57.10
10261;BME280;5175;42.606;23.388;2023-04-01T08:57:07;92411.34;;;16.39;53.98
10261;BME280;5175;42.606;23.388;2023-04-01T08:59:57;92413.19;;;16.82;52.37
10261;BME280;5175;42.606;23.388;2023-04-01T09:05:50;92409.91;;;17.42;50.40
10261;BME280;5175;42.606;23.388;2023-04-01T09:08:33;92425.75;;;17.82;48.91
10261;BME280;5175;42.606;23.388;2023-04-01T09:11:08;92395.91;;;17.72;47.38
10261;BME280;5175;42.606;23.388;2023-04-01T09:14:11;92405.63;;;18.18;46.33
10261;BME280;5175;42.606;23.388;2023-04-01T09:17:00;92385.78;;;18.30;44.56
10261;BME280;5175;42.606;23.388;2023-04-01T09:19:42;92404.09;;;18.85;44.63
10261;BME280;5175;42.606;23.388;2023-04-01T09:22:24;92410.06;;;19.24;44.23
10261;BME280;5175;42.606;23.388;2023-04-01T09:27:45;92398.47;;;19.23;42.27
10261;BME280;5175;42.606;23.388;2023-04-01T09:33:40;92390.19;;;18.60;42.49
10261;BME280;5175;42.606;23.388;2023-04-01T09:36:16;92408.19;;;18.30;42.71
10261;BME280;5175;42.606;23.388;2023-04-01T09:38:56;92396.06;;;18.21;42.78
10261;BME280;5175;42.606;23.388;2023-04-01T09:41:29;92405.09;;;18.09;43.97
10261;BME280;5175;42.606;23.388;2023-04-01T09:44:04;92385.25;;;17.79;44.65
10261;BME280;5175;42.606;23.388;2023-04-01T09:46:49;92396.41;;;17.23;45.71
10261;BME280;5175;42.606;23.388;2023-04-01T09:49:43;92381.44;;;17.26;47.11
10261;BME280;5175;42.606;23.388;2023-04-01T09:52:26;92385.91;;;17.18;46.75
10261;BME280;5175;42.606;23.388;2023-04-01T09:55:19;92362.63;;;17.10;41.76
10261;BME280;5175;42.606;23.388;2023-04-01T09:58:13;92365.59;;;17.05;46.73
10261;BME280;5175;42.606;23.388;2023-04-01T10:01:13;92374.63;;;17.13;48.25
10261;BME280;5175;42.606;23.388;2023-04-01T10:07:27;92353.72;;;17.25;49.20
10261;BME280;5175;42.606;23.388;2023-04-01T10:16:34;92356.41;;;17.25;50.41
10261;BME280;5175;42.606;23.388;2023-04-01T10:19:39;92345.78;;;17.32;49.96
10261;BME280;5175;42.606;23.388;2023-04-01T10:22:36;92334.91;;;16.75;52.50
10261;BME280;5175;42.606;23.388;2023-04-01T10:25:25;92312.81;;;16.85;49.55
10261;BME280;5175;42.606;23.388;2023-04-01T10:28:15;92329.09;;;16.73;51.23
10261;BME280;5175;42.606;23.388;2023-04-01T10:36:55;92314.25;;;16.98;49.52
10261;BME280;5175;42.606;23.388;2023-04-01T10:52:20;92275.84;;;18.04;35.72
10261;BME280;5175;42.606;23.388;2023-04-01T10:58:05;92287.94;;;17.91;36.08
10261;BME280;5175;42.606;23.388;2023-04-01T11:01:19;92292.91;;;17.66;37.16
10261;BME280;5175;42.606;23.388;2023-04-01T11:07:57;92301.31;;;17.61;37.53
10261;BME280;5175;42.606;23.388;2023-04-01T11:11:04;92291.28;;;17.62;38.17
10261;BME280;5175;42.606;23.388;2023-04-01T11:13:54;92289.72;;;17.61;38.28
10261;BME280;5175;42.606;23.388;2023-04-01T11:17:04;92272.19;;;17.51;38.34
10261;BME280;5175;42.606;23.388;2023-04-01T11:20:07;92294.09;;;17.49;38.66
10261;BME280;5175;42.606;23.388;2023-04-01T11:26:00;92268.00;;;17.34;40.19
10261;BME280;5175;42.606;23.388;2023-04-01T11:28:56;92265.41;;;17.38;39.90
10261;BME280;5175;42.606;23.388;2023-04-01T11:31:36;92263.00;;;17.33;40.70
10261;BME280;5175;42.606;23.388;2023-04-01T11:34:16;92279.16;;;17.33;40.82
10261;BME280;5175;42.606;23.388;2023-04-01T11:36:53;92304.63;;;17.16;40.31
10261;BME280;5175;42.606;23.388;2023-04-01T11:39:29;92337.75;;;17.17;41.08
10261;BME280;5175;42.606;23.388;2023-04-01T11:42:11;92349.41;;;17.05;42.40
10261;BME280;5175;42.606;23.388;2023-04-01T11:44:47;92362.38;;;16.02;50.02
10261;BME280;5175;42.606;23.388;2023-04-01T11:47:30;92407.34;;;15.58;57.20
10261;BME280;5175;42.606;23.388;2023-04-01T11:50:20;92402.81;;;14.71;69.19
10261;BME280;5175;42.606;23.388;2023-04-01T11:53:02;92435.19;;;13.52;78.96
10261;BME280;5175;42.606;23.388;2023-04-01T11:55:42;92465.06;;;12.92;88.59
10261;BME280;5175;42.606;23.388;2023-04-01T11:58:27;92480.25;;;12.50;95.19
10261;BME280;5175;42.606;23.388;2023-04-01T12:01:25;92489.53;;;12.06;100.00
10261;BME280;5175;42.606;23.388;2023-04-01T12:07:10;92492.38;;;11.58;100.00
10261;BME280;5175;42.606;23.388;2023-04-01T12:09:46;92458.91;;;11.61;100.00
10261;BME280;5175;42.606;23.388;2023-04-01T12:12:23;92458.66;;;11.71;100.00
10261;BME280;5175;42.606;23.388;2023-04-01T12:15:00;92485.00;;;11.89;100.00
10261;BME280;5175;42.606;23.388;2023-04-01T12:17:36;92480.25;;;12.04;100.00
10261;BME280;5175;42.606;23.388;2023-04-01T12:20:30;92488.66;;;12.31;100.00
10261;BME280;5175;42.606;23.388;2023-04-01T12:23:13;92484.53;;;12.42;100.00
10261;BME280;5175;42.606;23.388;2023-04-01T12:26:06;92486.72;;;12.40;100.00
10261;BME280;5175;42.606;23.388;2023-04-01T12:28:46;92481.16;;;12.54;100.00
10261;BME280;5175;42.606;23.388;2023-04-01T12:31:30;92473.72;;;12.68;100.00
10261;BME280;5175;42.606;23.388;2023-04-01T12:34:21;92457.97;;;12.67;100.00
10261;BME280;5175;42.606;23.388;2023-04-01T12:36:59;92457.91;;;12.84;100.00
10261;BME280;5175;42.606;23.388;2023-04-01T12:39:49;92459.00;;;13.12;100.00
10261;BME280;5175;42.606;23.388;2023-04-01T12:42:31;92480.88;;;13.14;100.00
10261;BME280;5175;42.606;23.388;2023-04-01T12:45:15;92492.31;;;12.94;100.00
10261;BME280;5175;42.606;23.388;2023-04-01T12:48:11;92489.81;;;12.89;100.00
10261;BME280;5175;42.606;23.388;2023-04-01T12:50:56;92492.56;;;12.72;100.00
10261;BME280;5175;42.606;23.388;2023-04-01T12:54:12;92484.97;;;12.53;100.00
10261;BME280;5175;42.606;23.388;2023-04-01T12:56:52;92479.50;;;12.41;100.00
10261;BME280;5175;42.606;23.388;2023-04-01T12:59:35;92485.13;;;12.48;100.00
10261;BME280;5175;42.606;23.388;2023-04-01T13:02:12;92485.81;;;12.36;100.00
10261;BME280;5175;42.606;23.388;2023-04-01T13:05:10;92485.88;;;12.19;100.00
10261;BME280;5175;42.606;23.388;2023-04-01T13:08:00;92472.16;;;12.29;100.00
10261;BME280;5175;42.606;23.388;2023-04-01T13:10:43;92474.19;;;12.32;100.00
10261;BME280;5175;42.606;23.388;2023-04-01T13:13:32;92475.34;;;12.14;100.00
10261;BME280;5175;42.606;23.388;2023-04-01T13:16:08;92471.03;;;12.30;100.00
10261;BME280;5175;42.606;23.388;2023-04-01T13:18:48;92435.81;;;12.28;100.00
10261;BME280;5175;42.606;23.388;2023-04-01T13:21:25;92393.75;;;12.67;100.00
10261;BME280;5175;42.606;23.388;2023-04-01T13:24:02;92351.94;;;13.24;100.00
10261;BME280;5175;42.606;23.388;2023-04-01T13:26:37;92368.78;;;14.26;100.00
10261;BME280;5175;42.606;23.388;2023-04-01T13:29:13;92359.03;;;14.82;100.00
10261;BME280;5175;42.606;23.388;2023-04-01T13:31:54;92369.31;;;14.92;100.00
10261;BME280;5175;42.606;23.388;2023-04-01T13:34:36;92380.38;;;15.43;100.00
10261;BME280;5175;42.606;23.388;2023-04-01T13:37:15;92386.59;;;16.02;99.44
10261;BME280;5175;42.606;23.388;2023-04-01T13:39:57;92380.13;;;16.66;91.01
10261;BME280;5175;42.606;23.388;2023-04-01T13:42:32;92364.28;;;16.64;95.74
10261;BME280;5175;42.606;23.388;2023-04-01T13:45:09;92360.53;;;16.84;92.85
10261;BME280;5175;42.606;23.388;2023-04-01T13:48:02;92362.50;;;16.87;86.47
10261;BME280;5175;42.606;23.388;2023-04-01T13:50:36;92371.34;;;17.58;76.23
10261;BME280;5175;42.606;23.388;2023-04-01T13:53:46;92367.09;;;17.98;78.43
10261;BME280;5175;42.606;23.388;2023-04-01T13:56:34;92367.47;;;18.42;67.75
10261;BME280;5175;42.606;23.388;2023-04-01T13:59:12;92386.22;;;18.77;61.23
10261;BME280;5175;42.606;23.388;2023-04-01T14:01:50;92374.16;;;18.71;58.12
10261;BME280;5175;42.606;23.388;2023-04-01T14:04:38;92365.88;;;19.39;59.54
10261;BME280;5175;42.606;23.388;2023-04-01T14:07:18;92366.25;;;20.04;57.98
10261;BME280;5175;42.606;23.388;2023-04-01T14:10:02;92363.72;;;20.18;61.03
10261;BME280;5175;42.606;23.388;2023-04-01T14:12:42;92353.34;;;19.57;65.29
10261;BME280;5175;42.606;23.388;2023-04-01T14:15:34;92332.41;;;18.20;67.50
10261;BME280;5175;42.606;23.388;2023-04-01T14:21:17;92343.97;;;17.02;72.71
10261;BME280;5175;42.606;23.388;2023-04-01T14:24:04;92322.78;;;16.50;77.84
10261;BME280;5175;42.606;23.388;2023-04-01T14:27:03;92317.59;;;16.25;78.31
10261;BME280;5175;42.606;23.388;2023-04-01T14:29:38;92326.97;;;15.85;82.25
10261;BME280;5175;42.606;23.388;2023-04-01T14:32:16;92313.94;;;16.02;78.87
10261;BME280;5175;42.606;23.388;2023-04-01T14:35:03;92325.47;;;15.87;80.70
10261;BME280;5175;42.606;23.388;2023-04-01T14:38:00;92318.34;;;15.48;86.45
10261;BME280;5175;42.606;23.388;2023-04-01T14:40:50;92338.28;;;15.35;84.91
10261;BME280;5175;42.606;23.388;2023-04-01T14:43:32;92308.50;;;15.40;84.53
10261;BME280;5175;42.606;23.388;2023-04-01T14:46:27;92293.69;;;15.18;86.57